Time;durP1;ratioP1;P1;durP2;ratioP2;P2;SDS_P1;SDS_P2;PMS_P1;PMS_P2;Temp;Humidity;BMP_temperature;BMP_pressure;BME280_temperature;BME280_humidity;BME280_pressure;Samples;Min_cycle;Max_cycle;Signal;HPM_P1;HPM_P2
2022/11/03 00:01:06;;;;;;;;;;;25.60;75.40;;;;;;5053955;28;19925;-75
2022/11/03 00:03:33;;;;;;;;;;;25.80;74.40;;;;;;5055110;28;19912;-71
2022/11/03 00:06:05;;;;;;;;;;;25.90;73.20;;;;;;5053570;28;19924;-75
2022/11/03 00:08:37;;;;;;;;;;;25.80;73.30;;;;;;5055507;28;19913;-76
2022/11/03 00:11:04;;;;;;;;;;;25.80;73.10;;;;;;5054213;28;20363;-76
2022/11/03 00:13:31;;;;;;;;;;;25.90;73.70;;;;;;5053691;28;20314;-73
2022/11/03 00:15:58;;;;;;;;;;;25.80;72.10;;;;;;5053787;28;19932;-76
2022/11/03 00:18:24;;;;;;;;;;;25.70;71.10;;;;;;5054989;28;19909;-73
2022/11/03 00:20:57;;;;;;;;;;;25.50;72.20;;;;;;5053560;28;19916;-76
2022/11/03 00:23:25;;;;;;;;;;;25.50;73.70;;;;;;5042629;28;20363;-71
2022/11/03 00:25:52;;;;;;;;;;;25.50;74.90;;;;;;5053369;28;19974;-76
2022/11/03 00:28:19;;;;;;;;;;;25.70;74.60;;;;;;5053971;28;20003;-77
2022/11/03 00:30:45;;;;;;;;;;;25.90;74.50;;;;;;5053592;28;19909;-74
2022/11/03 00:33:12;;;;;;;;;;;26.10;74.00;;;;;;5057974;28;19913;-71
2022/11/03 00:35:38;;;;;;;;;;;26.10;72.60;;;;;;5052821;28;19920;-72
2022/11/03 00:38:05;;;;;;;;;;;26.30;72.80;;;;;;5054527;28;20276;-73
2022/11/03 00:40:32;;;;;;;;;;;26.50;72.80;;;;;;5054313;28;19909;-75
2022/11/03 00:42:58;;;;;;;;;;;26.50;71.20;;;;;;5053928;28;19926;-74
2022/11/03 00:45:25;;;;;;;;;;;26.40;71.40;;;;;;5054518;28;19915;-78
2022/11/03 00:50:39;;;;;;;;;;;26.50;70.00;;;;;;5035271;28;19928;-76
2022/11/03 00:53:06;;;;;;;;;;;25.90;71.10;;;;;;5054116;28;19913;-76
2022/11/03 00:55:32;;;;;;;;;;;26.00;73.60;;;;;;5053928;28;19987;-77
2022/11/03 00:57:59;;;;;;;;;;;26.30;73.20;;;;;;5052963;28;20262;-75
2022/11/03 01:00:25;;;;;;;;;;;26.60;73.80;;;;;;5035585;28;20313;-78
2022/11/03 01:02:52;;;;;;;;;;;26.90;71.00;;;;;;5053390;28;19948;-77
2022/11/03 01:08:06;;;;;;;;;;;26.70;70.80;;;;;;5053406;28;19919;-77
2022/11/03 01:10:35;;;;;;;;;;;26.80;72.90;;;;;;5053534;28;19920;-73
2022/11/03 01:13:02;;;;;;;;;;;27.30;71.20;;;;;;5053841;28;20411;-77
2022/11/03 01:15:28;;;;;;;;;;;27.50;72.30;;;;;;5054041;28;19913;-70
2022/11/03 01:17:55;;;;;;;;;;;27.30;69.90;;;;;;5052785;28;19909;-74
2022/11/03 01:20:21;;;;;;;;;;;26.80;70.50;;;;;;5055895;28;19955;-76
2022/11/03 01:22:48;;;;;;;;;;;26.80;75.10;;;;;;5051115;28;19913;-78
2022/11/03 01:25:15;;;;;;;;;;;26.90;72.60;;;;;;5052638;28;20379;-76
2022/11/03 01:27:41;;;;;;;;;;;26.60;70.10;;;;;;5037154;28;20295;-75
2022/11/03 01:30:08;;;;;;;;;;;26.80;72.70;;;;;;5046592;28;20385;-76
2022/11/03 01:32:35;;;;;;;;;;;26.60;70.80;;;;;;5056215;28;20352;-77
2022/11/03 01:35:01;;;;;;;;;;;26.30;71.10;;;;;;5052663;28;20386;-76
2022/11/03 01:37:28;;;;;;;;;;;26.70;75.40;;;;;;5052735;28;19916;-75
2022/11/03 01:39:55;;;;;;;;;;;26.80;73.00;;;;;;5053260;28;19909;-77
2022/11/03 01:42:22;;;;;;;;;;;26.50;71.10;;;;;;5052570;28;19913;-73
2022/11/03 01:44:48;;;;;;;;;;;26.00;69.90;;;;;;5053501;28;19909;-71
2022/11/03 01:47:23;;;;;;;;;;;25.80;70.80;;;;;;5040353;28;19919;-74
2022/11/03 01:49:50;;;;;;;;;;;26.30;74.70;;;;;;5044354;28;20325;-77
2022/11/03 01:52:21;;;;;;;;;;;26.80;70.20;;;;;;5052398;28;19919;-71
2022/11/03 01:54:50;;;;;;;;;;;27.10;71.60;;;;;;5052946;28;19917;-75
2022/11/03 01:57:21;;;;;;;;;;;27.10;71.40;;;;;;5053194;28;19987;-71
2022/11/03 01:59:47;;;;;;;;;;;27.50;69.90;;;;;;5053067;28;19931;-79
2022/11/03 02:02:14;;;;;;;;;;;28.00;71.30;;;;;;5051278;28;19967;-77
2022/11/03 02:04:41;;;;;;;;;;;28.00;69.10;;;;;;5053462;28;19947;-78
2022/11/03 02:07:12;;;;;;;;;;;27.90;67.50;;;;;;5040812;28;19913;-76
2022/11/03 02:09:39;;;;;;;;;;;27.60;68.30;;;;;;5032737;28;19929;-76
2022/11/03 02:12:06;;;;;;;;;;;26.80;69.10;;;;;;5045162;28;20395;-78
2022/11/03 02:14:42;;;;;;;;;;;26.10;69.10;;;;;;5052798;28;19913;-73
2022/11/03 02:17:11;;;;;;;;;;;25.60;69.70;;;;;;5052120;28;19912;-79
2022/11/03 02:19:43;;;;;;;;;;;25.20;70.30;;;;;;5052508;28;20364;-73
2022/11/03 02:22:26;;;;;;;;;;;24.90;72.00;;;;;;5052364;28;19952;-76
2022/11/03 02:25:13;;;;;;;;;;;25.40;73.90;;;;;;5051073;28;19913;-70
2022/11/03 02:27:40;;;;;;;;;;;26.60;74.70;;;;;;5003531;28;20002;-74
2022/11/03 02:30:07;;;;;;;;;;;26.80;71.90;;;;;;5052020;28;20073;-72
2022/11/03 02:32:39;;;;;;;;;;;26.60;69.80;;;;;;5054790;28;19916;-76
2022/11/03 02:35:18;;;;;;;;;;;26.30;69.80;;;;;;5051512;28;20015;-78
2022/11/03 02:37:47;;;;;;;;;;;25.90;70.00;;;;;;5051581;28;20357;-78
2022/11/03 02:40:20;;;;;;;;;;;25.40;69.40;;;;;;5051429;28;19928;-77
2022/11/03 02:42:50;;;;;;;;;;;25.00;71.50;;;;;;5051549;28;19913;-75
2022/11/03 02:45:18;;;;;;;;;;;24.80;72.80;;;;;;5052408;28;19915;-74
2022/11/03 02:47:45;;;;;;;;;;;24.80;72.10;;;;;;5049956;28;19912;-77
2022/11/03 02:50:12;;;;;;;;;;;24.60;70.70;;;;;;5052271;28;19909;-77
2022/11/03 02:52:40;;;;;;;;;;;24.50;71.60;;;;;;5035984;28;20324;-77
2022/11/03 02:55:25;;;;;;;;;;;24.40;71.20;;;;;;5045257;28;19913;-78
2022/11/03 02:58:10;;;;;;;;;;;24.20;72.90;;;;;;5033918;28;19928;-74
2022/11/03 03:00:41;;;;;;;;;;;24.30;71.60;;;;;;5032120;28;19913;-77
2022/11/03 03:03:10;;;;;;;;;;;24.30;70.90;;;;;;5051318;28;19913;-77
2022/11/03 03:05:39;;;;;;;;;;;24.20;70.10;;;;;;5050719;28;19921;-77
2022/11/03 03:08:08;;;;;;;;;;;24.40;70.90;;;;;;5050486;28;19959;-75
2022/11/03 03:10:39;;;;;;;;;;;25.20;72.30;;;;;;5050722;28;19913;-76
2022/11/03 03:13:06;;;;;;;;;;;26.20;71.60;;;;;;5050583;28;19913;-77
2022/11/03 03:15:51;;;;;;;;;;;27.00;72.40;;;;;;5051506;28;19924;-73
2022/11/03 03:18:17;;;;;;;;;;;27.10;66.50;;;;;;5032240;28;19924;-78
2022/11/03 03:20:49;;;;;;;;;;;27.10;68.70;;;;;;5032758;28;19909;-69
2022/11/03 03:23:18;;;;;;;;;;;27.40;68.40;;;;;;5052271;28;20367;-79
2022/11/03 03:25:52;;;;;;;;;;;27.50;65.10;;;;;;5049471;28;19917;-69
2022/11/03 03:28:31;;;;;;;;;;;27.50;67.00;;;;;;5054984;28;19921;-79
2022/11/03 03:31:00;;;;;;;;;;;27.70;69.00;;;;;;5039290;28;19913;-80
2022/11/03 03:33:27;;;;;;;;;;;27.70;68.30;;;;;;5054879;28;19913;-79
2022/11/03 03:35:55;;;;;;;;;;;27.90;70.10;;;;;;5054457;28;20020;-76
2022/11/03 03:38:25;;;;;;;;;;;28.20;68.20;;;;;;5055541;28;20335;-79
2022/11/03 03:40:53;;;;;;;;;;;28.00;68.70;;;;;;5055291;28;19908;-80
2022/11/03 03:43:23;;;;;;;;;;;28.10;68.70;;;;;;5057955;28;19913;-80
2022/11/03 03:45:51;;;;;;;;;;;28.20;68.30;;;;;;5053358;28;19917;-76
2022/11/03 03:48:18;;;;;;;;;;;28.30;66.00;;;;;;5042731;28;19913;-80
2022/11/03 03:50:46;;;;;;;;;;;28.00;66.60;;;;;;5055011;28;20290;-77
2022/11/03 03:53:14;;;;;;;;;;;28.10;65.50;;;;;;5035562;28;19913;-78
2022/11/03 03:55:49;;;;;;;;;;;28.20;65.80;;;;;;5035682;28;20368;-79
2022/11/03 03:58:17;;;;;;;;;;;28.30;66.10;;;;;;5035525;28;19936;-73
2022/11/03 04:00:43;;;;;;;;;;;28.40;68.10;;;;;;5041736;28;19909;-82
2022/11/03 04:03:17;;;;;;;;;;;28.70;66.50;;;;;;5049287;28;20343;-77
2022/11/03 04:05:44;;;;;;;;;;;28.90;65.80;;;;;;5053599;28;20021;-78
2022/11/03 04:08:11;;;;;;;;;;;29.00;66.30;;;;;;5035166;28;19920;-80
2022/11/03 04:10:38;;;;;;;;;;;29.10;67.50;;;;;;5035182;28;19916;-80
2022/11/03 04:23:47;;;;;;;;;;;26.10;70.10;;;;;;5054026;28;20012;-80
2022/11/03 04:26:15;;;;;;;;;;;25.30;70.20;;;;;;5053119;28;19921;-76
2022/11/03 04:28:41;;;;;;;;;;;25.20;72.50;;;;;;5063090;28;19923;-77
2022/11/03 04:31:15;;;;;;;;;;;24.90;71.80;;;;;;5060187;28;20383;-80
2022/11/03 04:33:42;;;;;;;;;;;24.40;71.90;;;;;;5053919;28;20033;-78
2022/11/03 04:36:11;;;;;;;;;;;24.20;72.30;;;;;;5048581;28;19925;-74
2022/11/03 04:38:38;;;;;;;;;;;24.30;72.60;;;;;;5034745;28;20266;-78
2022/11/03 04:41:11;;;;;;;;;;;24.20;72.70;;;;;;5038217;28;20385;-77
2022/11/03 04:43:38;;;;;;;;;;;23.90;71.70;;;;;;5054436;28;19916;-79
2022/11/03 04:46:04;;;;;;;;;;;23.70;73.10;;;;;;5053333;28;20418;-79
2022/11/03 04:48:33;;;;;;;;;;;23.50;73.80;;;;;;5049271;28;19913;-78
2022/11/03 04:51:00;;;;;;;;;;;23.40;73.90;;;;;;5052628;28;20325;-80
2022/11/03 04:53:31;;;;;;;;;;;23.30;73.90;;;;;;5052584;28;19967;-81
2022/11/03 04:55:59;;;;;;;;;;;23.20;74.10;;;;;;5050536;28;19925;-80
2022/11/03 04:58:27;;;;;;;;;;;22.90;73.60;;;;;;5051449;28;19920;-80
2022/11/03 05:00:55;;;;;;;;;;;22.90;76.20;;;;;;5052232;28;19975;-77
2022/11/03 05:03:26;;;;;;;;;;;22.80;75.10;;;;;;5054103;28;20256;-78
2022/11/03 05:05:53;;;;;;;;;;;22.60;75.00;;;;;;5051400;28;19979;-73
2022/11/03 05:08:20;;;;;;;;;;;22.60;75.70;;;;;;5052099;28;19920;-80
2022/11/03 05:10:47;;;;;;;;;;;22.70;75.50;;;;;;5051168;28;19954;-81
2022/11/03 05:13:23;;;;;;;;;;;23.20;77.90;;;;;;5032192;28;19920;-80
2022/11/03 05:15:51;;;;;;;;;;;23.80;75.40;;;;;;5033284;28;19925;-79
2022/11/03 05:18:28;;;;;;;;;;;24.10;73.00;;;;;;5052054;28;20343;-79
2022/11/03 05:21:15;;;;;;;;;;;24.10;73.00;;;;;;5051526;28;20007;-78
2022/11/03 05:23:44;;;;;;;;;;;24.10;72.30;;;;;;5052971;28;19959;-79
2022/11/03 05:26:16;;;;;;;;;;;24.30;74.20;;;;;;5053386;28;19925;-79
2022/11/03 05:28:44;;;;;;;;;;;24.40;72.40;;;;;;5053357;28;19909;-80
2022/11/03 05:31:30;;;;;;;;;;;24.60;74.00;;;;;;5056358;28;19919;-77
2022/11/03 05:33:58;;;;;;;;;;;24.60;72.20;;;;;;5052671;28;20325;-77
2022/11/03 05:36:26;;;;;;;;;;;24.60;72.30;;;;;;5053482;28;19943;-79
2022/11/03 05:38:58;;;;;;;;;;;24.60;72.80;;;;;;5053473;28;20344;-79
2022/11/03 05:41:27;;;;;;;;;;;24.60;72.80;;;;;;5047307;28;19913;-78
2022/11/03 05:43:53;;;;;;;;;;;24.60;71.20;;;;;;5036395;28;19955;-75
2022/11/03 05:46:20;;;;;;;;;;;24.60;71.40;;;;;;5051938;28;19916;-79
2022/11/03 05:48:48;;;;;;;;;;;24.30;71.30;;;;;;5053386;28;19909;-79
2022/11/03 05:51:22;;;;;;;;;;;24.10;72.80;;;;;;5048520;28;19913;-76
2022/11/03 05:53:50;;;;;;;;;;;24.20;73.70;;;;;;5042302;28;19966;-77
2022/11/03 05:56:18;;;;;;;;;;;24.10;72.70;;;;;;5047322;28;19921;-79
2022/11/03 05:58:46;;;;;;;;;;;23.90;72.60;;;;;;5033529;28;19920;-80
2022/11/03 06:01:12;;;;;;;;;;;23.70;73.00;;;;;;5043980;28;19924;-76
2022/11/03 06:03:39;;;;;;;;;;;23.40;73.90;;;;;;5052149;28;19917;-77
2022/11/03 06:06:18;;;;;;;;;;;23.30;74.20;;;;;;5051196;28;20383;-78
2022/11/03 06:08:44;;;;;;;;;;;23.00;75.40;;;;;;5051712;28;19913;-75
2022/11/03 06:11:19;;;;;;;;;;;22.80;76.20;;;;;;5051701;28;19913;-76
2022/11/03 06:13:45;;;;;;;;;;;22.60;77.10;;;;;;5052694;28;19977;-72
2022/11/03 06:16:12;;;;;;;;;;;22.20;79.40;;;;;;5051801;28;20266;-75
2022/11/03 06:18:39;;;;;;;;;;;21.90;81.00;;;;;;5052449;28;19913;-78
2022/11/03 06:21:07;;;;;;;;;;;21.50;82.50;;;;;;5051675;28;19913;-78
2022/11/03 06:23:35;;;;;;;;;;;21.10;83.50;;;;;;5052494;28;19912;-79
2022/11/03 06:26:02;;;;;;;;;;;20.90;85.10;;;;;;5050703;28;19928;-79
2022/11/03 06:28:35;;;;;;;;;;;20.70;85.70;;;;;;5052430;28;20361;-77
2022/11/03 06:31:04;;;;;;;;;;;20.60;85.70;;;;;;5051619;28;20366;-76
2022/11/03 06:33:35;;;;;;;;;;;20.50;86.20;;;;;;5051916;28;20311;-77
2022/11/03 06:36:05;;;;;;;;;;;20.40;87.20;;;;;;5054508;28;19924;-77
2022/11/03 06:38:34;;;;;;;;;;;20.30;89.20;;;;;;5052680;28;19909;-77
2022/11/03 06:41:00;;;;;;;;;;;20.20;90.60;;;;;;5048930;28;19913;-76
2022/11/03 06:43:39;;;;;;;;;;;20.20;90.80;;;;;;5045604;28;20378;-77
2022/11/03 06:46:11;;;;;;;;;;;20.20;90.80;;;;;;5051058;28;19917;-78
2022/11/03 06:48:38;;;;;;;;;;;20.20;90.90;;;;;;5052524;28;19915;-79
2022/11/03 06:51:14;;;;;;;;;;;20.20;90.90;;;;;;5051391;28;19916;-77
2022/11/03 06:53:41;;;;;;;;;;;20.10;91.10;;;;;;5051977;28;20274;-78
2022/11/03 06:56:11;;;;;;;;;;;20.10;91.40;;;;;;5048230;28;19921;-78
2022/11/03 06:58:40;;;;;;;;;;;20.10;91.50;;;;;;5031651;28;19909;-78
2022/11/03 07:01:14;;;;;;;;;;;20.00;91.40;;;;;;5035918;28;19913;-77
2022/11/03 07:03:41;;;;;;;;;;;19.90;91.60;;;;;;5052253;28;20374;-77
2022/11/03 07:06:11;;;;;;;;;;;19.80;91.70;;;;;;5051086;28;19955;-76
2022/11/03 07:08:42;;;;;;;;;;;19.80;91.80;;;;;;5051184;28;19913;-77
2022/11/03 07:11:18;;;;;;;;;;;19.70;92.10;;;;;;5043231;28;19944;-78
2022/11/03 07:13:49;;;;;;;;;;;19.60;92.60;;;;;;5052445;28;20428;-70
2022/11/03 07:16:18;;;;;;;;;;;19.40;92.70;;;;;;5050953;28;19932;-78
2022/11/03 07:18:46;;;;;;;;;;;19.40;92.60;;;;;;5052013;28;20371;-75
2022/11/03 07:21:24;;;;;;;;;;;19.30;92.60;;;;;;5047661;28;19924;-71
2022/11/03 07:23:51;;;;;;;;;;;19.10;92.90;;;;;;5051840;28;19909;-76
2022/11/03 07:26:18;;;;;;;;;;;19.10;92.90;;;;;;5046293;28;20024;-75
2022/11/03 07:28:47;;;;;;;;;;;19.10;93.20;;;;;;5049878;28;19913;-69
2022/11/03 07:31:19;;;;;;;;;;;19.00;92.90;;;;;;5050878;28;19912;-77
2022/11/03 07:33:46;;;;;;;;;;;18.90;93.10;;;;;;5051865;28;19908;-71
2022/11/03 07:36:19;;;;;;;;;;;18.90;93.40;;;;;;5054158;28;19925;-74
2022/11/03 07:38:49;;;;;;;;;;;18.80;93.50;;;;;;5051106;28;19920;-76
2022/11/03 07:41:20;;;;;;;;;;;18.80;93.50;;;;;;5044944;28;20279;-74
2022/11/03 07:43:54;;;;;;;;;;;18.80;93.60;;;;;;5044991;28;19912;-78
2022/11/03 07:46:21;;;;;;;;;;;18.70;93.90;;;;;;5045139;28;20055;-76
2022/11/03 07:48:49;;;;;;;;;;;18.80;94.10;;;;;;5031788;28;19956;-77
2022/11/03 07:51:20;;;;;;;;;;;18.80;94.50;;;;;;5037945;28;20411;-78
2022/11/03 07:53:48;;;;;;;;;;;18.60;94.90;;;;;;5051336;28;20378;-71
2022/11/03 07:56:22;;;;;;;;;;;18.50;95.30;;;;;;5046879;28;20363;-75
2022/11/03 07:58:51;;;;;;;;;;;18.40;95.60;;;;;;5031768;28;19920;-77
2022/11/03 08:01:29;;;;;;;;;;;18.30;95.80;;;;;;5044521;28;19913;-76
2022/11/03 08:03:58;;;;;;;;;;;18.30;96.00;;;;;;5050504;28;19912;-76
2022/11/03 08:06:25;;;;;;;;;;;18.20;96.00;;;;;;5049516;28;20405;-77
2022/11/03 08:08:51;;;;;;;;;;;18.20;96.00;;;;;;5050154;28;19971;-73
2022/11/03 08:11:18;;;;;;;;;;;18.10;95.90;;;;;;5049574;28;19913;-77
2022/11/03 08:13:44;;;;;;;;;;;18.00;96.30;;;;;;5038312;28;20288;-74
2022/11/03 08:16:11;;;;;;;;;;;17.90;97.00;;;;;;5050820;28;20364;-76
2022/11/03 08:18:38;;;;;;;;;;;17.70;97.20;;;;;;5052623;28;19916;-76
2022/11/03 08:21:05;;;;;;;;;;;17.70;97.60;;;;;;5053824;28;19916;-75
2022/11/03 08:23:31;;;;;;;;;;;17.60;97.80;;;;;;5054929;28;20321;-73
2022/11/03 08:25:58;;;;;;;;;;;17.60;97.70;;;;;;5053294;28;20808;-76
2022/11/03 08:28:25;;;;;;;;;;;17.60;97.90;;;;;;5053944;28;19916;-75
2022/11/03 08:30:51;;;;;;;;;;;17.60;97.70;;;;;;5057355;28;20033;-78
2022/11/03 08:33:18;;;;;;;;;;;17.70;97.70;;;;;;5054964;28;20439;-77
2022/11/03 08:35:45;;;;;;;;;;;17.70;97.70;;;;;;5052973;28;19921;-73
2022/11/03 08:38:11;;;;;;;;;;;17.70;97.20;;;;;;5034581;28;19913;-74
2022/11/03 08:40:38;;;;;;;;;;;17.70;97.20;;;;;;5034936;28;20000;-74
2022/11/03 08:43:05;;;;;;;;;;;17.70;97.50;;;;;;5053937;28;20464;-77
2022/11/03 08:45:32;;;;;;;;;;;17.70;97.40;;;;;;5054636;28;19999;-77
2022/11/03 08:47:58;;;;;;;;;;;17.70;97.20;;;;;;5036799;28;19913;-76
2022/11/03 08:50:25;;;;;;;;;;;17.60;97.80;;;;;;5054609;28;19909;-76
2022/11/03 08:52:52;;;;;;;;;;;17.60;98.60;;;;;;5036627;28;19942;-72
2022/11/03 08:55:18;;;;;;;;;;;17.50;99.50;;;;;;5034706;28;19917;-75
2022/11/03 08:57:46;;;;;;;;;;;17.40;99.90;;;;;;5051807;28;19999;-75
2022/11/03 09:00:13;;;;;;;;;;;17.30;99.90;;;;;;5054422;28;19982;-74
2022/11/03 09:02:40;;;;;;;;;;;17.10;99.90;;;;;;5052890;28;19921;-74
2022/11/03 09:05:07;;;;;;;;;;;16.90;99.90;;;;;;5049852;28;20512;-72
2022/11/03 09:07:33;;;;;;;;;;;16.80;99.90;;;;;;5049199;28;20011;-74
2022/11/03 09:10:00;;;;;;;;;;;16.60;99.90;;;;;;5053236;28;20337;-75
2022/11/03 09:12:27;;;;;;;;;;;16.50;99.90;;;;;;5041966;28;20275;-73
2022/11/03 09:14:53;;;;;;;;;;;16.40;99.90;;;;;;5047259;28;20298;-71
2022/11/03 09:17:20;;;;;;;;;;;16.40;99.90;;;;;;5047578;28;20383;-70
2022/11/03 09:19:46;;;;;;;;;;;16.30;99.90;;;;;;5035433;28;20279;-75
2022/11/03 09:22:13;;;;;;;;;;;16.20;99.90;;;;;;5051975;28;20007;-75
2022/11/03 09:24:40;;;;;;;;;;;16.20;99.90;;;;;;5035371;28;19913;-72
2022/11/03 09:27:06;;;;;;;;;;;16.20;99.90;;;;;;5052213;28;19921;-75
2022/11/03 09:29:33;;;;;;;;;;;16.20;99.90;;;;;;5053350;28;19991;-75
2022/11/03 09:32:00;;;;;;;;;;;16.20;99.90;;;;;;5055893;28;19917;-74
2022/11/03 09:34:28;;;;;;;;;;;16.10;99.90;;;;;;5052969;28;20004;-75
2022/11/03 09:36:54;;;;;;;;;;;16.10;99.90;;;;;;5052095;28;19931;-75
2022/11/03 09:39:21;;;;;;;;;;;16.10;99.90;;;;;;5053037;28;20276;-74
2022/11/03 09:41:48;;;;;;;;;;;16.10;99.90;;;;;;5045913;28;20368;-76
2022/11/03 09:44:15;;;;;;;;;;;16.10;99.90;;;;;;5052593;28;19970;-75
2022/11/03 09:46:41;;;;;;;;;;;16.10;99.90;;;;;;5051790;28;19924;-75
2022/11/03 09:49:12;;;;;;;;;;;16.10;99.90;;;;;;5052935;28;20015;-76
2022/11/03 09:51:39;;;;;;;;;;;16.10;99.90;;;;;;5051014;28;19927;-74
2022/11/03 09:54:06;;;;;;;;;;;16.10;99.90;;;;;;5052013;28;20661;-75
2022/11/03 09:56:34;;;;;;;;;;;16.10;99.90;;;;;;5049811;28;19944;-72
2022/11/03 09:59:01;;;;;;;;;;;16.10;99.90;;;;;;5052215;28;19912;-76
2022/11/03 10:01:29;;;;;;;;;;;16.10;99.90;;;;;;5046075;28;19913;-76
2022/11/03 10:03:58;;;;;;;;;;;16.10;99.90;;;;;;5052043;28;19913;-76
2022/11/03 10:06:25;;;;;;;;;;;16.10;99.90;;;;;;5046131;28;20014;-77
2022/11/03 10:08:51;;;;;;;;;;;16.10;99.90;;;;;;5032661;28;19917;-77
2022/11/03 10:11:18;;;;;;;;;;;16.10;99.90;;;;;;5037907;28;19919;-73
2022/11/03 10:13:47;;;;;;;;;;;16.10;99.90;;;;;;5052042;28;19909;-71
2022/11/03 10:16:19;;;;;;;;;;;16.10;99.90;;;;;;5051028;28;19932;-76
2022/11/03 10:18:46;;;;;;;;;;;16.10;99.90;;;;;;5052263;28;19916;-73
2022/11/03 10:21:22;;;;;;;;;;;16.10;99.90;;;;;;5050969;28;20677;-74
2022/11/03 10:23:49;;;;;;;;;;;16.10;99.90;;;;;;5046709;28;19913;-74
2022/11/03 10:26:17;;;;;;;;;;;16.00;99.90;;;;;;5042215;28;19921;-73
2022/11/03 10:29:01;;;;;;;;;;;16.00;99.90;;;;;;5032080;28;19913;-75
2022/11/03 10:31:40;;;;;;;;;;;16.00;99.90;;;;;;5051300;28;19917;-74
2022/11/03 10:34:24;;;;;;;;;;;16.00;99.90;;;;;;5051680;28;20375;-74
2022/11/03 10:37:08;;;;;;;;;;;15.90;99.90;;;;;;5051021;28;20371;-75
2022/11/03 10:39:35;;;;;;;;;;;15.90;99.90;;;;;;5052266;28;20004;-75
2022/11/03 10:42:01;;;;;;;;;;;16.00;99.90;;;;;;5050117;28;20375;-75
2022/11/03 10:44:29;;;;;;;;;;;15.90;99.90;;;;;;5052011;28;19981;-75
2022/11/03 10:46:58;;;;;;;;;;;15.90;99.90;;;;;;5050906;28;19920;-75
2022/11/03 10:49:25;;;;;;;;;;;15.90;99.90;;;;;;5051955;28;19952;-71
2022/11/03 10:51:53;;;;;;;;;;;15.80;99.90;;;;;;5041585;28;19913;-75
2022/11/03 10:54:23;;;;;;;;;;;15.80;99.90;;;;;;5035579;28;20455;-73
2022/11/03 10:56:51;;;;;;;;;;;15.80;99.90;;;;;;5042176;28;19960;-75
2022/11/03 10:59:21;;;;;;;;;;;15.80;99.90;;;;;;5045639;28;19913;-74
2022/11/03 11:01:48;;;;;;;;;;;15.70;99.90;;;;;;5051018;28;19917;-72
2022/11/03 11:04:16;;;;;;;;;;;15.70;99.90;;;;;;5050930;28;19912;-73
2022/11/03 11:06:43;;;;;;;;;;;15.70;99.90;;;;;;5044268;28;20417;-71
2022/11/03 11:09:11;;;;;;;;;;;15.70;99.90;;;;;;5050821;28;20282;-72
2022/11/03 11:11:38;;;;;;;;;;;15.60;99.90;;;;;;5049736;28;19913;-73
2022/11/03 11:14:37;;;;;;;;;;;15.60;99.90;;;;;;5051152;28;19913;-75
2022/11/03 11:17:05;;;;;;;;;;;15.60;99.90;;;;;;4998154;28;19925;-74
2022/11/03 11:19:51;;;;;;;;;;;15.60;99.90;;;;;;5031342;28;19909;-70
2022/11/03 11:22:21;;;;;;;;;;;15.60;99.90;;;;;;5031355;28;19920;-73
2022/11/03 11:24:48;;;;;;;;;;;15.60;99.90;;;;;;5040687;28;19952;-75
2022/11/03 11:27:32;;;;;;;;;;;15.60;99.90;;;;;;5049157;28;19963;-76
2022/11/03 11:29:59;;;;;;;;;;;15.60;99.90;;;;;;5049070;28;19917;-76
2022/11/03 11:32:41;;;;;;;;;;;15.60;99.90;;;;;;5035774;28;20016;-73
2022/11/03 11:35:08;;;;;;;;;;;15.60;99.90;;;;;;5030842;28;20448;-76
2022/11/03 11:37:36;;;;;;;;;;;15.50;99.90;;;;;;5048889;28;19916;-76
2022/11/03 11:40:21;;;;;;;;;;;15.50;99.90;;;;;;5052671;28;19909;-75
2022/11/03 11:43:06;;;;;;;;;;;15.50;99.90;;;;;;5051627;28;19909;-74
2022/11/03 11:45:50;;;;;;;;;;;15.50;99.90;;;;;;5053156;28;20260;-74
2022/11/03 11:48:17;;;;;;;;;;;15.40;99.90;;;;;;5035208;28;20364;-73
2022/11/03 11:50:44;;;;;;;;;;;15.50;99.90;;;;;;5038280;28;19927;-76
2022/11/03 11:53:12;;;;;;;;;;;15.40;99.90;;;;;;5034943;28;19917;-76
2022/11/03 11:55:44;;;;;;;;;;;15.40;99.90;;;;;;5035297;28;20265;-75
2022/11/03 11:58:17;;;;;;;;;;;15.40;99.90;;;;;;5040489;28;20419;-75
2022/11/03 12:00:51;;;;;;;;;;;15.30;99.90;;;;;;5053223;28;19919;-75
2022/11/03 12:03:21;;;;;;;;;;;15.30;99.90;;;;;;5054866;28;19909;-73
2022/11/03 12:05:49;;;;;;;;;;;15.30;99.90;;;;;;5053544;28;19944;-76
2022/11/03 12:08:20;;;;;;;;;;;15.30;99.90;;;;;;5034841;28;19948;-74
2022/11/03 12:10:54;;;;;;;;;;;15.30;99.90;;;;;;5035766;28;20355;-75
2022/11/03 12:13:42;;;;;;;;;;;15.30;99.90;;;;;;5034754;28;20286;-74
2022/11/03 12:16:09;;;;;;;;;;;15.30;99.90;;;;;;5046980;28;19960;-75
2022/11/03 12:18:39;;;;;;;;;;;15.30;99.90;;;;;;5054496;28;19959;-75
2022/11/03 12:21:10;;;;;;;;;;;15.20;99.90;;;;;;5050684;28;19952;-75
2022/11/03 12:23:41;;;;;;;;;;;15.20;99.90;;;;;;5034540;28;20295;-75
2022/11/03 12:26:26;;;;;;;;;;;15.20;99.90;;;;;;5034725;28;19921;-74
2022/11/03 12:28:52;;;;;;;;;;;15.20;99.90;;;;;;5052055;28;20389;-76
2022/11/03 12:31:19;;;;;;;;;;;15.10;99.90;;;;;;5053277;28;20148;-76
2022/11/03 12:33:46;;;;;;;;;;;15.10;99.90;;;;;;5053840;28;19963;-75
2022/11/03 12:36:12;;;;;;;;;;;15.00;99.90;;;;;;5046212;28;19927;-75
2022/11/03 12:38:39;;;;;;;;;;;14.90;99.90;;;;;;5054269;28;20003;-76
2022/11/03 12:41:21;;;;;;;;;;;14.80;99.90;;;;;;5053766;28;19927;-74
2022/11/03 12:43:48;;;;;;;;;;;14.70;99.90;;;;;;5053996;28;19931;-75
2022/11/03 12:46:16;;;;;;;;;;;14.70;99.90;;;;;;5052702;28;20759;-74
2022/11/03 12:48:43;;;;;;;;;;;14.60;99.90;;;;;;5053529;28;19916;-75
2022/11/03 12:51:29;;;;;;;;;;;14.50;99.90;;;;;;5053225;28;19925;-74
2022/11/03 12:53:56;;;;;;;;;;;14.50;99.90;;;;;;5053180;28;20248;-75
2022/11/03 12:56:23;;;;;;;;;;;14.50;99.90;;;;;;5050573;28;20438;-75
2022/11/03 12:58:49;;;;;;;;;;;14.50;99.90;;;;;;5052750;28;19962;-76
2022/11/03 13:01:17;;;;;;;;;;;14.50;99.90;;;;;;5051717;28;20408;-75
2022/11/03 13:03:44;;;;;;;;;;;14.50;99.90;;;;;;5051780;28;19920;-73
2022/11/03 13:06:13;;;;;;;;;;;14.60;99.90;;;;;;5051265;28;19916;-74
2022/11/03 13:08:40;;;;;;;;;;;14.60;99.90;;;;;;5052926;28;19920;-72
2022/11/03 13:13:52;;;;;;;;;;;14.70;99.90;;;;;;5054407;28;19966;-77
2022/11/03 13:16:18;;;;;;;;;;;14.80;99.90;;;;;;5051636;28;19924;-77
2022/11/03 13:18:45;;;;;;;;;;;14.80;99.90;;;;;;5053486;28;19920;-75
2022/11/03 13:21:12;;;;;;;;;;;14.80;99.90;;;;;;5052801;28;19935;-77
2022/11/03 13:23:39;;;;;;;;;;;14.80;99.90;;;;;;5053630;28;19909;-74
2022/11/03 13:26:06;;;;;;;;;;;14.80;99.90;;;;;;5053217;28;19925;-74
2022/11/03 13:28:32;;;;;;;;;;;14.80;99.90;;;;;;5053871;28;19912;-74
2022/11/03 13:30:59;;;;;;;;;;;14.90;99.90;;;;;;5054632;28;19913;-73
2022/11/03 13:33:25;;;;;;;;;;;14.90;99.90;;;;;;5054966;28;19913;-73
2022/11/03 13:35:52;;;;;;;;;;;14.90;99.90;;;;;;5052389;28;19929;-74
2022/11/03 13:38:20;;;;;;;;;;;14.90;99.90;;;;;;5053587;28;20267;-74
2022/11/03 13:40:46;;;;;;;;;;;14.90;99.90;;;;;;5052391;28;19916;-75
2022/11/03 13:43:13;;;;;;;;;;;14.90;99.90;;;;;;5053651;28;20319;-74
2022/11/03 13:45:40;;;;;;;;;;;14.90;99.90;;;;;;5052662;28;19956;-74
2022/11/03 13:48:06;;;;;;;;;;;14.90;99.90;;;;;;5052720;28;19909;-75
2022/11/03 13:50:33;;;;;;;;;;;14.90;99.90;;;;;;5052738;28;20403;-71
2022/11/03 13:53:00;;;;;;;;;;;14.90;99.90;;;;;;5034765;28;19909;-75
2022/11/03 13:55:26;;;;;;;;;;;14.90;99.90;;;;;;5037514;28;19917;-75
2022/11/03 13:57:53;;;;;;;;;;;14.90;99.90;;;;;;5050550;28;19924;-74
2022/11/03 14:00:20;;;;;;;;;;;14.90;99.90;;;;;;5053445;28;19913;-75
2022/11/03 14:02:47;;;;;;;;;;;14.90;99.90;;;;;;5052374;28;20279;-74
2022/11/03 14:05:13;;;;;;;;;;;14.90;99.90;;;;;;5052867;28;20032;-77
2022/11/03 14:07:40;;;;;;;;;;;14.90;99.90;;;;;;5036540;28;19913;-75
2022/11/03 14:10:07;;;;;;;;;;;14.90;99.90;;;;;;5048526;28;20069;-75
2022/11/03 14:12:35;;;;;;;;;;;14.90;99.90;;;;;;5048939;28;19920;-74
2022/11/03 14:15:04;;;;;;;;;;;15.00;99.90;;;;;;5052690;28;19916;-77
2022/11/03 14:17:31;;;;;;;;;;;15.00;99.90;;;;;;5051938;28;19928;-74
2022/11/03 14:19:58;;;;;;;;;;;14.90;99.90;;;;;;5052549;28;19966;-75
2022/11/03 14:22:24;;;;;;;;;;;14.90;99.90;;;;;;5051903;28;19921;-75
2022/11/03 14:24:51;;;;;;;;;;;14.90;99.90;;;;;;5052517;28;19913;-75
2022/11/03 14:27:19;;;;;;;;;;;14.90;99.90;;;;;;5039299;28;19925;-76
2022/11/03 14:29:48;;;;;;;;;;;14.90;99.90;;;;;;5032635;28;19920;-73
2022/11/03 14:32:16;;;;;;;;;;;14.90;99.90;;;;;;5049557;28;19939;-74
2022/11/03 14:34:42;;;;;;;;;;;14.90;99.90;;;;;;5051491;28;19924;-75
2022/11/03 14:37:09;;;;;;;;;;;14.90;99.90;;;;;;5033896;28;20009;-77
2022/11/03 14:39:36;;;;;;;;;;;14.90;99.90;;;;;;5032800;28;19920;-77
2022/11/03 14:42:10;;;;;;;;;;;14.90;99.90;;;;;;5039127;28;19967;-77
2022/11/03 14:44:37;;;;;;;;;;;14.90;99.90;;;;;;5032495;28;20371;-76
2022/11/03 14:47:05;;;;;;;;;;;14.90;99.90;;;;;;5044377;28;19919;-76